sensor_id;sensor_type;location;lat;lon;timestamp;P1;durP1;ratioP1;P2;durP2;ratioP2
71091;SDS011;58751;50.708;7.134;2023-11-19T00:02:22;0.90;;;0.90;;
71091;SDS011;58751;50.708;7.134;2023-11-19T00:04:47;1.03;;;0.77;;
71091;SDS011;58751;50.708;7.134;2023-11-19T00:07:13;0.90;;;0.90;;
71091;SDS011;58751;50.708;7.134;2023-11-19T00:09:40;0.87;;;0.87;;
71091;SDS011;58751;50.708;7.134;2023-11-19T00:12:05;1.70;;;0.90;;
71091;SDS011;58751;50.708;7.134;2023-11-19T00:14:31;1.20;;;0.70;;
71091;SDS011;58751;50.708;7.134;2023-11-19T00:16:57;3.80;;;1.00;;
71091;SDS011;58751;50.708;7.134;2023-11-19T00:19:22;1.03;;;0.93;;
71091;SDS011;58751;50.708;7.134;2023-11-19T00:21:48;0.90;;;0.90;;
71091;SDS011;58751;50.708;7.134;2023-11-19T00:24:13;0.80;;;0.80;;
71091;SDS011;58751;50.708;7.134;2023-11-19T00:26:40;1.33;;;1.00;;
71091;SDS011;58751;50.708;7.134;2023-11-19T00:29:05;1.67;;;0.73;;
71091;SDS011;58751;50.708;7.134;2023-11-19T00:31:31;1.13;;;1.13;;
71091;SDS011;58751;50.708;7.134;2023-11-19T00:33:56;1.23;;;1.13;;
71091;SDS011;58751;50.708;7.134;2023-11-19T00:36:21;2.87;;;0.90;;
71091;SDS011;58751;50.708;7.134;2023-11-19T00:38:47;1.40;;;1.30;;
71091;SDS011;58751;50.708;7.134;2023-11-19T00:41:12;1.43;;;1.33;;
71091;SDS011;58751;50.708;7.134;2023-11-19T00:43:39;1.50;;;1.27;;
71091;SDS011;58751;50.708;7.134;2023-11-19T00:46:06;2.28;;;1.40;;
71091;SDS011;58751;50.708;7.134;2023-11-19T00:48:32;1.40;;;1.30;;
71091;SDS011;58751;50.708;7.134;2023-11-19T00:50:57;1.00;;;0.93;;
71091;SDS011;58751;50.708;7.134;2023-11-19T00:53:23;1.13;;;1.07;;
71091;SDS011;58751;50.708;7.134;2023-11-19T00:55:48;0.67;;;0.67;;
71091;SDS011;58751;50.708;7.134;2023-11-19T00:58:13;0.57;;;0.57;;
71091;SDS011;58751;50.708;7.134;2023-11-19T01:00:40;2.00;;;0.53;;
71091;SDS011;58751;50.708;7.134;2023-11-19T01:03:06;0.50;;;0.50;;
71091;SDS011;58751;50.708;7.134;2023-11-19T01:05:31;0.60;;;0.40;;
71091;SDS011;58751;50.708;7.134;2023-11-19T01:07:56;0.70;;;0.70;;
71091;SDS011;58751;50.708;7.134;2023-11-19T01:10:22;1.03;;;0.60;;
71091;SDS011;58751;50.708;7.134;2023-11-19T01:12:47;0.40;;;0.40;;
71091;SDS011;58751;50.708;7.134;2023-11-19T01:15:13;1.57;;;0.50;;
71091;SDS011;58751;50.708;7.134;2023-11-19T01:17:39;0.60;;;0.50;;
71091;SDS011;58751;50.708;7.134;2023-11-19T01:20:05;0.40;;;0.40;;
71091;SDS011;58751;50.708;7.134;2023-11-19T01:22:31;0.30;;;0.30;;
71091;SDS011;58751;50.708;7.134;2023-11-19T01:24:56;1.23;;;0.50;;
71091;SDS011;58751;50.708;7.134;2023-11-19T01:27:22;0.50;;;0.40;;
71091;SDS011;58751;50.708;7.134;2023-11-19T01:29:47;2.63;;;0.43;;
71091;SDS011;58751;50.708;7.134;2023-11-19T01:32:13;0.50;;;0.50;;
71091;SDS011;58751;50.708;7.134;2023-11-19T01:34:39;2.80;;;1.27;;
71091;SDS011;58751;50.708;7.134;2023-11-19T01:37:05;0.52;;;0.52;;
71091;SDS011;58751;50.708;7.134;2023-11-19T01:39:30;0.50;;;0.40;;
71091;SDS011;58751;50.708;7.134;2023-11-19T01:41:56;1.70;;;0.80;;
71091;SDS011;58751;50.708;7.134;2023-11-19T01:44:21;0.50;;;0.40;;
71091;SDS011;58751;50.708;7.134;2023-11-19T01:46:47;0.47;;;0.33;;
71091;SDS011;58751;50.708;7.134;2023-11-19T01:49:13;0.77;;;0.40;;
71091;SDS011;58751;50.708;7.134;2023-11-19T01:51:41;1.15;;;0.40;;
71091;SDS011;58751;50.708;7.134;2023-11-19T01:54:06;1.35;;;0.88;;
71091;SDS011;58751;50.708;7.134;2023-11-19T01:56:32;0.67;;;0.43;;
71091;SDS011;58751;50.708;7.134;2023-11-19T01:58:57;0.40;;;0.40;;
71091;SDS011;58751;50.708;7.134;2023-11-19T02:01:23;0.40;;;0.40;;
71091;SDS011;58751;50.708;7.134;2023-11-19T02:03:48;0.30;;;0.20;;
71091;SDS011;58751;50.708;7.134;2023-11-19T02:06:14;0.60;;;0.40;;
71091;SDS011;58751;50.708;7.134;2023-11-19T02:08:41;0.40;;;0.30;;
71091;SDS011;58751;50.708;7.134;2023-11-19T02:11:07;0.40;;;0.40;;
71091;SDS011;58751;50.708;7.134;2023-11-19T02:13:32;0.40;;;0.40;;
71091;SDS011;58751;50.708;7.134;2023-11-19T02:15:57;0.40;;;0.40;;
71091;SDS011;58751;50.708;7.134;2023-11-19T02:18:23;1.10;;;0.53;;
71091;SDS011;58751;50.708;7.134;2023-11-19T02:20:50;0.60;;;0.30;;
71091;SDS011;58751;50.708;7.134;2023-11-19T02:23:15;0.60;;;0.30;;
71091;SDS011;58751;50.708;7.134;2023-11-19T02:25:42;0.60;;;0.60;;
71091;SDS011;58751;50.708;7.134;2023-11-19T02:28:09;1.35;;;0.50;;
71091;SDS011;58751;50.708;7.134;2023-11-19T02:30:35;0.40;;;0.30;;
71091;SDS011;58751;50.708;7.134;2023-11-19T02:33:00;0.80;;;0.40;;
71091;SDS011;58751;50.708;7.134;2023-11-19T02:35:26;1.87;;;0.50;;
71091;SDS011;58751;50.708;7.134;2023-11-19T02:37:51;0.73;;;0.40;;
71091;SDS011;58751;50.708;7.134;2023-11-19T02:40:17;0.60;;;0.60;;
71091;SDS011;58751;50.708;7.134;2023-11-19T02:42:42;0.40;;;0.40;;
71091;SDS011;58751;50.708;7.134;2023-11-19T02:45:09;1.90;;;0.40;;
71091;SDS011;58751;50.708;7.134;2023-11-19T02:47:35;0.77;;;0.52;;
71091;SDS011;58751;50.708;7.134;2023-11-19T02:50:01;0.60;;;0.60;;
71091;SDS011;58751;50.708;7.134;2023-11-19T02:52:26;0.50;;;0.50;;
71091;SDS011;58751;50.708;7.134;2023-11-19T02:54:51;1.93;;;0.50;;
71091;SDS011;58751;50.708;7.134;2023-11-19T02:57:17;2.80;;;0.40;;
71091;SDS011;58751;50.708;7.134;2023-11-19T02:59:42;2.00;;;0.50;;
71091;SDS011;58751;50.708;7.134;2023-11-19T03:02:09;1.60;;;0.50;;
71091;SDS011;58751;50.708;7.134;2023-11-19T03:04:34;0.65;;;0.57;;
71091;SDS011;58751;50.708;7.134;2023-11-19T03:07:00;0.60;;;0.60;;
71091;SDS011;58751;50.708;7.134;2023-11-19T03:09:25;0.43;;;0.43;;
71091;SDS011;58751;50.708;7.134;2023-11-19T03:11:51;0.60;;;0.40;;
71091;SDS011;58751;50.708;7.134;2023-11-19T03:14:16;1.90;;;0.50;;
71091;SDS011;58751;50.708;7.134;2023-11-19T03:16:41;0.60;;;0.60;;
71091;SDS011;58751;50.708;7.134;2023-11-19T03:19:11;0.60;;;0.40;;
71091;SDS011;58751;50.708;7.134;2023-11-19T03:21:36;0.55;;;0.45;;
71091;SDS011;58751;50.708;7.134;2023-11-19T03:24:02;0.67;;;0.43;;
71091;SDS011;58751;50.708;7.134;2023-11-19T03:26:28;1.07;;;0.33;;
71091;SDS011;58751;50.708;7.134;2023-11-19T03:28:53;1.27;;;0.50;;
71091;SDS011;58751;50.708;7.134;2023-11-19T03:31:18;0.57;;;0.40;;
71091;SDS011;58751;50.708;7.134;2023-11-19T03:33:44;2.20;;;0.50;;
71091;SDS011;58751;50.708;7.134;2023-11-19T03:36:11;1.87;;;0.80;;
71091;SDS011;58751;50.708;7.134;2023-11-19T03:38:36;1.70;;;1.00;;
71091;SDS011;58751;50.708;7.134;2023-11-19T03:41:01;0.60;;;0.40;;
71091;SDS011;58751;50.708;7.134;2023-11-19T03:43:27;0.80;;;0.60;;
71091;SDS011;58751;50.708;7.134;2023-11-19T03:45:52;2.33;;;0.67;;
71091;SDS011;58751;50.708;7.134;2023-11-19T03:48:18;1.87;;;1.20;;
71091;SDS011;58751;50.708;7.134;2023-11-19T03:50:43;2.93;;;1.00;;
71091;SDS011;58751;50.708;7.134;2023-11-19T03:53:11;3.80;;;1.10;;
71091;SDS011;58751;50.708;7.134;2023-11-19T03:55:36;1.10;;;0.60;;
71091;SDS011;58751;50.708;7.134;2023-11-19T03:58:01;2.30;;;1.10;;
71091;SDS011;58751;50.708;7.134;2023-11-19T04:00:27;3.33;;;0.93;;
71091;SDS011;58751;50.708;7.134;2023-11-19T04:02:52;3.57;;;1.30;;
71091;SDS011;58751;50.708;7.134;2023-11-19T04:05:17;1.70;;;1.00;;
71091;SDS011;58751;50.708;7.134;2023-11-19T04:07:43;3.80;;;1.50;;
71091;SDS011;58751;50.708;7.134;2023-11-19T04:10:10;6.73;;;1.87;;
71091;SDS011;58751;50.708;7.134;2023-11-19T04:12:35;5.28;;;1.83;;
71091;SDS011;58751;50.708;7.134;2023-11-19T04:15:01;6.33;;;1.97;;
71091;SDS011;58751;50.708;7.134;2023-11-19T04:17:26;5.77;;;1.70;;
71091;SDS011;58751;50.708;7.134;2023-11-19T04:19:51;13.13;;;1.97;;
71091;SDS011;58751;50.708;7.134;2023-11-19T04:22:17;5.60;;;1.93;;
71091;SDS011;58751;50.708;7.134;2023-11-19T04:24:42;6.30;;;1.93;;
71091;SDS011;58751;50.708;7.134;2023-11-19T04:27:09;6.50;;;2.57;;
71091;SDS011;58751;50.708;7.134;2023-11-19T04:29:34;8.93;;;1.95;;
71091;SDS011;58751;50.708;7.134;2023-11-19T04:32:00;4.70;;;2.03;;
71091;SDS011;58751;50.708;7.134;2023-11-19T04:34:25;4.33;;;2.33;;
71091;SDS011;58751;50.708;7.134;2023-11-19T04:36:50;8.47;;;2.50;;
71091;SDS011;58751;50.708;7.134;2023-11-19T04:39:16;5.30;;;1.80;;
71091;SDS011;58751;50.708;7.134;2023-11-19T04:41:47;8.33;;;1.50;;
71091;SDS011;58751;50.708;7.134;2023-11-19T04:44:14;5.85;;;2.35;;
71091;SDS011;58751;50.708;7.134;2023-11-19T04:46:40;1.92;;;1.77;;
71091;SDS011;58751;50.708;7.134;2023-11-19T04:49:05;10.00;;;2.30;;
71091;SDS011;58751;50.708;7.134;2023-11-19T04:51:30;1.87;;;1.70;;
71091;SDS011;58751;50.708;7.134;2023-11-19T04:53:56;7.93;;;2.83;;
71091;SDS011;58751;50.708;7.134;2023-11-19T04:56:21;5.30;;;2.13;;
71091;SDS011;58751;50.708;7.134;2023-11-19T04:58:47;6.83;;;2.17;;
71091;SDS011;58751;50.708;7.134;2023-11-19T05:01:14;4.93;;;1.60;;
71091;SDS011;58751;50.708;7.134;2023-11-19T05:03:40;4.68;;;1.83;;
71091;SDS011;58751;50.708;7.134;2023-11-19T05:06:05;8.43;;;2.33;;
71091;SDS011;58751;50.708;7.134;2023-11-19T05:08:31;2.72;;;1.30;;
71091;SDS011;58751;50.708;7.134;2023-11-19T05:10:57;7.23;;;1.97;;
71091;SDS011;58751;50.708;7.134;2023-11-19T05:13:22;7.30;;;2.47;;
71091;SDS011;58751;50.708;7.134;2023-11-19T05:15:48;9.90;;;1.60;;
71091;SDS011;58751;50.708;7.134;2023-11-19T05:18:14;5.57;;;2.53;;
71091;SDS011;58751;50.708;7.134;2023-11-19T05:20:40;5.53;;;2.22;;
71091;SDS011;58751;50.708;7.134;2023-11-19T05:23:05;4.40;;;2.17;;
71091;SDS011;58751;50.708;7.134;2023-11-19T05:25:31;6.43;;;2.30;;
71091;SDS011;58751;50.708;7.134;2023-11-19T05:27:56;4.87;;;1.87;;
71091;SDS011;58751;50.708;7.134;2023-11-19T05:30:21;5.00;;;1.77;;
71091;SDS011;58751;50.708;7.134;2023-11-19T05:32:47;3.90;;;2.50;;
71091;SDS011;58751;50.708;7.134;2023-11-19T05:35:14;9.70;;;2.13;;
71091;SDS011;58751;50.708;7.134;2023-11-19T05:37:39;3.58;;;2.55;;
71091;SDS011;58751;50.708;7.134;2023-11-19T05:40:05;6.13;;;2.60;;
71091;SDS011;58751;50.708;7.134;2023-11-19T05:42:31;5.93;;;2.10;;
71091;SDS011;58751;50.708;7.134;2023-11-19T05:44:57;4.37;;;2.97;;
71091;SDS011;58751;50.708;7.134;2023-11-19T05:47:22;6.70;;;2.40;;
71091;SDS011;58751;50.708;7.134;2023-11-19T05:49:47;5.93;;;2.50;;
71091;SDS011;58751;50.708;7.134;2023-11-19T05:52:14;7.80;;;2.20;;
71091;SDS011;58751;50.708;7.134;2023-11-19T05:54:40;10.68;;;2.40;;
71091;SDS011;58751;50.708;7.134;2023-11-19T05:57:06;8.03;;;3.00;;
71091;SDS011;58751;50.708;7.134;2023-11-19T05:59:31;9.95;;;2.60;;
71091;SDS011;58751;50.708;7.134;2023-11-19T06:01:57;6.10;;;2.10;;
71091;SDS011;58751;50.708;7.134;2023-11-19T06:04:22;4.77;;;2.30;;
71091;SDS011;58751;50.708;7.134;2023-11-19T06:06:48;7.93;;;2.70;;
71091;SDS011;58751;50.708;7.134;2023-11-19T06:09:15;13.93;;;3.57;;
71091;SDS011;58751;50.708;7.134;2023-11-19T06:11:40;12.10;;;3.00;;
71091;SDS011;58751;50.708;7.134;2023-11-19T06:14:06;8.93;;;3.23;;
71091;SDS011;58751;50.708;7.134;2023-11-19T06:16:31;13.87;;;3.13;;
71091;SDS011;58751;50.708;7.134;2023-11-19T06:18:56;13.70;;;2.80;;
71091;SDS011;58751;50.708;7.134;2023-11-19T06:21:22;7.90;;;3.50;;
71091;SDS011;58751;50.708;7.134;2023-11-19T06:23:47;9.30;;;2.70;;
71091;SDS011;58751;50.708;7.134;2023-11-19T06:26:14;15.13;;;3.10;;
71091;SDS011;58751;50.708;7.134;2023-11-19T06:28:39;7.80;;;2.97;;
71091;SDS011;58751;50.708;7.134;2023-11-19T06:31:05;12.20;;;3.00;;
71091;SDS011;58751;50.708;7.134;2023-11-19T06:33:30;11.43;;;2.73;;
71091;SDS011;58751;50.708;7.134;2023-11-19T06:35:56;13.70;;;3.33;;
71091;SDS011;58751;50.708;7.134;2023-11-19T06:38:21;6.43;;;2.80;;
71091;SDS011;58751;50.708;7.134;2023-11-19T06:40:46;11.67;;;3.73;;
71091;SDS011;58751;50.708;7.134;2023-11-19T06:43:13;7.33;;;2.70;;
71091;SDS011;58751;50.708;7.134;2023-11-19T06:45:39;9.52;;;3.28;;
71091;SDS011;58751;50.708;7.134;2023-11-19T06:48:04;8.97;;;2.70;;
71091;SDS011;58751;50.708;7.134;2023-11-19T06:50:30;12.17;;;3.47;;
71091;SDS011;58751;50.708;7.134;2023-11-19T06:52:55;8.47;;;3.13;;
71091;SDS011;58751;50.708;7.134;2023-11-19T06:55:21;6.97;;;2.63;;
71091;SDS011;58751;50.708;7.134;2023-11-19T06:57:46;13.97;;;3.33;;
71091;SDS011;58751;50.708;7.134;2023-11-19T07:00:13;10.57;;;3.70;;
71091;SDS011;58751;50.708;7.134;2023-11-19T07:02:39;8.27;;;3.08;;
71091;SDS011;58751;50.708;7.134;2023-11-19T07:05:04;12.03;;;3.60;;
71091;SDS011;58751;50.708;7.134;2023-11-19T07:07:30;10.73;;;3.73;;
71091;SDS011;58751;50.708;7.134;2023-11-19T07:09:55;10.67;;;3.23;;
71091;SDS011;58751;50.708;7.134;2023-11-19T07:12:21;19.03;;;3.20;;
71091;SDS011;58751;50.708;7.134;2023-11-19T07:14:46;10.57;;;3.17;;
71091;SDS011;58751;50.708;7.134;2023-11-19T07:17:13;10.10;;;2.83;;
71091;SDS011;58751;50.708;7.134;2023-11-19T07:19:38;8.45;;;3.30;;
71091;SDS011;58751;50.708;7.134;2023-11-19T07:22:04;11.30;;;3.67;;
71091;SDS011;58751;50.708;7.134;2023-11-19T07:24:29;7.33;;;3.23;;
71091;SDS011;58751;50.708;7.134;2023-11-19T07:26:55;13.50;;;3.73;;
71091;SDS011;58751;50.708;7.134;2023-11-19T07:29:20;9.60;;;2.80;;
71091;SDS011;58751;50.708;7.134;2023-11-19T07:31:46;7.80;;;2.90;;
71091;SDS011;58751;50.708;7.134;2023-11-19T07:34:12;16.37;;;3.50;;
71091;SDS011;58751;50.708;7.134;2023-11-19T07:36:38;8.60;;;3.13;;
71091;SDS011;58751;50.708;7.134;2023-11-19T07:39:03;14.77;;;3.90;;
71091;SDS011;58751;50.708;7.134;2023-11-19T07:41:29;7.73;;;3.20;;
71091;SDS011;58751;50.708;7.134;2023-11-19T07:43:54;13.93;;;4.00;;
71091;SDS011;58751;50.708;7.134;2023-11-19T07:46:20;11.90;;;2.80;;
71091;SDS011;58751;50.708;7.134;2023-11-19T07:48:45;15.90;;;3.93;;
71091;SDS011;58751;50.708;7.134;2023-11-19T07:51:12;14.50;;;3.90;;
71091;SDS011;58751;50.708;7.134;2023-11-19T07:53:37;7.47;;;3.22;;
71091;SDS011;58751;50.708;7.134;2023-11-19T07:56:03;11.20;;;3.27;;
71091;SDS011;58751;50.708;7.134;2023-11-19T07:58:29;12.45;;;3.40;;
71091;SDS011;58751;50.708;7.134;2023-11-19T08:00:54;5.90;;;2.70;;
71091;SDS011;58751;50.708;7.134;2023-11-19T08:03:20;20.17;;;4.37;;
71091;SDS011;58751;50.708;7.134;2023-11-19T08:05:45;10.33;;;3.10;;
71091;SDS011;58751;50.708;7.134;2023-11-19T08:08:12;8.67;;;3.60;;
71091;SDS011;58751;50.708;7.134;2023-11-19T08:10:38;10.43;;;3.28;;
71091;SDS011;58751;50.708;7.134;2023-11-19T08:13:03;9.50;;;3.57;;
71091;SDS011;58751;50.708;7.134;2023-11-19T08:15:29;9.77;;;3.00;;
71091;SDS011;58751;50.708;7.134;2023-11-19T08:17:54;12.60;;;3.77;;
71091;SDS011;58751;50.708;7.134;2023-11-19T08:20:19;12.43;;;3.70;;
71091;SDS011;58751;50.708;7.134;2023-11-19T08:22:45;12.00;;;3.40;;
71091;SDS011;58751;50.708;7.134;2023-11-19T08:25:12;8.00;;;3.10;;
71091;SDS011;58751;50.708;7.134;2023-11-19T08:27:37;11.82;;;3.10;;
71091;SDS011;58751;50.708;7.134;2023-11-19T08:30:03;13.13;;;4.67;;
71091;SDS011;58751;50.708;7.134;2023-11-19T08:32:29;9.43;;;3.15;;
71091;SDS011;58751;50.708;7.134;2023-11-19T08:34:54;15.17;;;3.47;;
71091;SDS011;58751;50.708;7.134;2023-11-19T08:37:20;17.07;;;4.03;;
71091;SDS011;58751;50.708;7.134;2023-11-19T08:39:45;10.07;;;3.50;;
71091;SDS011;58751;50.708;7.134;2023-11-19T08:42:12;14.20;;;4.43;;
71091;SDS011;58751;50.708;7.134;2023-11-19T08:44:37;12.07;;;3.87;;
71091;SDS011;58751;50.708;7.134;2023-11-19T08:47:03;8.43;;;3.37;;
71091;SDS011;58751;50.708;7.134;2023-11-19T08:49:28;8.70;;;3.30;;
71091;SDS011;58751;50.708;7.134;2023-11-19T08:51:54;10.20;;;3.33;;
71091;SDS011;58751;50.708;7.134;2023-11-19T08:54:19;19.27;;;3.80;;
71091;SDS011;58751;50.708;7.134;2023-11-19T08:56:45;19.67;;;4.23;;
71091;SDS011;58751;50.708;7.134;2023-11-19T08:59:11;11.37;;;4.10;;
71091;SDS011;58751;50.708;7.134;2023-11-19T09:01:37;12.17;;;3.57;;
71091;SDS011;58751;50.708;7.134;2023-11-19T09:04:02;15.33;;;3.53;;
71091;SDS011;58751;50.708;7.134;2023-11-19T09:06:28;11.57;;;4.13;;
71091;SDS011;58751;50.708;7.134;2023-11-19T09:08:54;13.53;;;5.00;;
71091;SDS011;58751;50.708;7.134;2023-11-19T09:11:19;15.43;;;4.67;;
71091;SDS011;58751;50.708;7.134;2023-11-19T09:13:44;11.20;;;3.70;;
71091;SDS011;58751;50.708;7.134;2023-11-19T09:16:12;14.00;;;3.60;;
71091;SDS011;58751;50.708;7.134;2023-11-19T09:18:37;15.50;;;4.00;;
71091;SDS011;58751;50.708;7.134;2023-11-19T09:21:03;11.33;;;3.60;;
71091;SDS011;58751;50.708;7.134;2023-11-19T09:23:29;11.83;;;3.73;;
71091;SDS011;58751;50.708;7.134;2023-11-19T09:25:54;9.23;;;3.70;;
71091;SDS011;58751;50.708;7.134;2023-11-19T09:28:20;14.60;;;4.03;;
71091;SDS011;58751;50.708;7.134;2023-11-19T09:30:45;15.10;;;4.27;;
71091;SDS011;58751;50.708;7.134;2023-11-19T09:33:12;10.77;;;4.13;;
71091;SDS011;58751;50.708;7.134;2023-11-19T09:35:37;11.10;;;3.57;;
71091;SDS011;58751;50.708;7.134;2023-11-19T09:38:02;9.13;;;3.80;;
71091;SDS011;58751;50.708;7.134;2023-11-19T09:40:28;16.13;;;4.77;;
71091;SDS011;58751;50.708;7.134;2023-11-19T09:42:53;15.57;;;3.90;;
71091;SDS011;58751;50.708;7.134;2023-11-19T09:45:20;10.13;;;3.77;;
71091;SDS011;58751;50.708;7.134;2023-11-19T09:47:46;13.10;;;4.17;;
71091;SDS011;58751;50.708;7.134;2023-11-19T09:50:14;12.73;;;4.77;;
71091;SDS011;58751;50.708;7.134;2023-11-19T09:52:41;12.27;;;4.30;;
71091;SDS011;58751;50.708;7.134;2023-11-19T09:55:07;11.73;;;3.70;;
71091;SDS011;58751;50.708;7.134;2023-11-19T09:57:33;7.40;;;3.30;;
71091;SDS011;58751;50.708;7.134;2023-11-19T09:59:59;9.80;;;3.50;;
71091;SDS011;58751;50.708;7.134;2023-11-19T10:02:25;13.50;;;4.13;;
71091;SDS011;58751;50.708;7.134;2023-11-19T10:04:52;10.60;;;4.80;;
71091;SDS011;58751;50.708;7.134;2023-11-19T10:07:19;14.23;;;4.30;;
71091;SDS011;58751;50.708;7.134;2023-11-19T10:09:44;9.37;;;3.07;;
71091;SDS011;58751;50.708;7.134;2023-11-19T10:12:11;15.67;;;4.53;;
71091;SDS011;58751;50.708;7.134;2023-11-19T10:14:37;10.53;;;3.53;;
71091;SDS011;58751;50.708;7.134;2023-11-19T10:17:03;13.33;;;4.70;;
71091;SDS011;58751;50.708;7.134;2023-11-19T10:19:28;10.30;;;3.80;;
71091;SDS011;58751;50.708;7.134;2023-11-19T10:21:53;14.17;;;4.40;;
71091;SDS011;58751;50.708;7.134;2023-11-19T10:24:27;11.60;;;4.13;;
71091;SDS011;58751;50.708;7.134;2023-11-19T10:26:56;7.80;;;3.20;;
71091;SDS011;58751;50.708;7.134;2023-11-19T10:29:22;12.97;;;4.43;;
71091;SDS011;58751;50.708;7.134;2023-11-19T10:31:55;7.63;;;3.50;;
71091;SDS011;58751;50.708;7.134;2023-11-19T10:34:24;11.10;;;3.60;;
71091;SDS011;58751;50.708;7.134;2023-11-19T10:36:50;11.03;;;4.17;;
71091;SDS011;58751;50.708;7.134;2023-11-19T10:39:15;9.27;;;4.17;;
71091;SDS011;58751;50.708;7.134;2023-11-19T10:41:42;9.80;;;4.90;;
71091;SDS011;58751;50.708;7.134;2023-11-19T10:44:07;11.80;;;4.03;;
71091;SDS011;58751;50.708;7.134;2023-11-19T10:46:36;9.63;;;3.47;;
71091;SDS011;58751;50.708;7.134;2023-11-19T10:49:02;7.47;;;3.20;;
71091;SDS011;58751;50.708;7.134;2023-11-19T10:51:27;9.87;;;3.13;;
71091;SDS011;58751;50.708;7.134;2023-11-19T10:53:54;9.80;;;4.20;;
71091;SDS011;58751;50.708;7.134;2023-11-19T10:56:23;8.20;;;3.30;;
71091;SDS011;58751;50.708;7.134;2023-11-19T10:58:51;8.70;;;4.03;;
71091;SDS011;58751;50.708;7.134;2023-11-19T11:01:18;11.93;;;3.33;;
71091;SDS011;58751;50.708;7.134;2023-11-19T11:03:45;11.40;;;3.77;;
71091;SDS011;58751;50.708;7.134;2023-11-19T11:06:10;10.30;;;3.43;;
71091;SDS011;58751;50.708;7.134;2023-11-19T11:08:37;11.50;;;3.03;;
71091;SDS011;58751;50.708;7.134;2023-11-19T11:11:02;13.37;;;3.70;;
71091;SDS011;58751;50.708;7.134;2023-11-19T11:13:29;8.30;;;3.13;;
71091;SDS011;58751;50.708;7.134;2023-11-19T11:15:56;9.50;;;3.00;;
71091;SDS011;58751;50.708;7.134;2023-11-19T11:18:22;10.10;;;3.20;;
71091;SDS011;58751;50.708;7.134;2023-11-19T11:20:47;7.33;;;2.93;;
71091;SDS011;58751;50.708;7.134;2023-11-19T11:23:19;7.07;;;3.40;;
71091;SDS011;58751;50.708;7.134;2023-11-19T11:26:05;10.13;;;4.07;;
71091;SDS011;58751;50.708;7.134;2023-11-19T11:28:44;9.17;;;3.57;;
71091;SDS011;58751;50.708;7.134;2023-11-19T11:31:19;8.07;;;3.60;;
71091;SDS011;58751;50.708;7.134;2023-11-19T11:34:04;11.23;;;3.47;;
71091;SDS011;58751;50.708;7.134;2023-11-19T11:36:42;10.93;;;3.83;;
71091;SDS011;58751;50.708;7.134;2023-11-19T11:39:12;13.03;;;3.40;;
71091;SDS011;58751;50.708;7.134;2023-11-19T11:41:37;15.27;;;2.97;;
71091;SDS011;58751;50.708;7.134;2023-11-19T11:44:03;11.00;;;4.13;;
71091;SDS011;58751;50.708;7.134;2023-11-19T11:49:26;9.93;;;3.97;;
71091;SDS011;58751;50.708;7.134;2023-11-19T11:51:59;14.03;;;3.50;;
71091;SDS011;58751;50.708;7.134;2023-11-19T11:54:28;10.27;;;3.43;;
71091;SDS011;58751;50.708;7.134;2023-11-19T11:57:00;12.50;;;3.30;;
71091;SDS011;58751;50.708;7.134;2023-11-19T11:59:36;10.83;;;3.30;;
71091;SDS011;58751;50.708;7.134;2023-11-19T12:02:03;7.60;;;3.23;;
71091;SDS011;58751;50.708;7.134;2023-11-19T12:04:29;9.13;;;3.20;;
71091;SDS011;58751;50.708;7.134;2023-11-19T12:07:02;12.50;;;3.70;;
71091;SDS011;58751;50.708;7.134;2023-11-19T12:09:29;9.53;;;3.77;;
71091;SDS011;58751;50.708;7.134;2023-11-19T12:12:06;9.20;;;3.40;;
71091;SDS011;58751;50.708;7.134;2023-11-19T12:17:40;17.55;;;4.28;;
71091;SDS011;58751;50.708;7.134;2023-11-19T12:20:07;8.82;;;3.53;;
71091;SDS011;58751;50.708;7.134;2023-11-19T12:22:33;13.07;;;4.60;;
71091;SDS011;58751;50.708;7.134;2023-11-19T12:24:59;13.17;;;3.93;;
71091;SDS011;58751;50.708;7.134;2023-11-19T12:27:25;11.20;;;4.33;;
71091;SDS011;58751;50.708;7.134;2023-11-19T12:29:50;17.00;;;3.93;;
71091;SDS011;58751;50.708;7.134;2023-11-19T12:32:15;11.67;;;3.40;;
71091;SDS011;58751;50.708;7.134;2023-11-19T12:34:42;11.53;;;3.63;;
71091;SDS011;58751;50.708;7.134;2023-11-19T12:37:08;10.37;;;3.93;;
71091;SDS011;58751;50.708;7.134;2023-11-19T12:39:33;13.20;;;4.50;;
71091;SDS011;58751;50.708;7.134;2023-11-19T12:41:58;10.47;;;3.70;;
71091;SDS011;58751;50.708;7.134;2023-11-19T12:44:24;13.67;;;3.90;;
71091;SDS011;58751;50.708;7.134;2023-11-19T12:46:59;10.23;;;3.33;;
71091;SDS011;58751;50.708;7.134;2023-11-19T12:49:28;12.87;;;3.50;;
71091;SDS011;58751;50.708;7.134;2023-11-19T12:51:55;13.00;;;2.97;;
71091;SDS011;58751;50.708;7.134;2023-11-19T12:54:20;8.85;;;2.90;;
71091;SDS011;58751;50.708;7.134;2023-11-19T12:56:56;6.00;;;3.85;;
71091;SDS011;58751;50.708;7.134;2023-11-19T12:59:21;8.07;;;2.80;;
71091;SDS011;58751;50.708;7.134;2023-11-19T13:01:55;11.40;;;3.37;;
71091;SDS011;58751;50.708;7.134;2023-11-19T13:04:21;9.57;;;2.80;;
71091;SDS011;58751;50.708;7.134;2023-11-19T13:06:47;9.73;;;3.37;;
71091;SDS011;58751;50.708;7.134;2023-11-19T13:09:22;11.70;;;3.47;;
71091;SDS011;58751;50.708;7.134;2023-11-19T13:11:48;7.32;;;2.50;;
71091;SDS011;58751;50.708;7.134;2023-11-19T13:14:13;13.67;;;3.10;;
71091;SDS011;58751;50.708;7.134;2023-11-19T13:16:39;18.03;;;3.57;;
71091;SDS011;58751;50.708;7.134;2023-11-19T13:19:04;12.63;;;2.77;;
71091;SDS011;58751;50.708;7.134;2023-11-19T13:21:30;11.50;;;3.93;;
71091;SDS011;58751;50.708;7.134;2023-11-19T13:23:55;9.50;;;3.70;;
71091;SDS011;58751;50.708;7.134;2023-11-19T13:26:22;13.30;;;3.80;;
71091;SDS011;58751;50.708;7.134;2023-11-19T13:28:48;13.38;;;3.60;;
71091;SDS011;58751;50.708;7.134;2023-11-19T13:31:13;17.87;;;4.73;;
71091;SDS011;58751;50.708;7.134;2023-11-19T13:33:38;8.50;;;3.17;;
71091;SDS011;58751;50.708;7.134;2023-11-19T13:36:04;14.30;;;5.23;;
71091;SDS011;58751;50.708;7.134;2023-11-19T13:38:30;15.63;;;4.93;;
71091;SDS011;58751;50.708;7.134;2023-11-19T13:40:55;14.93;;;4.20;;
71091;SDS011;58751;50.708;7.134;2023-11-19T13:43:22;13.63;;;3.97;;
71091;SDS011;58751;50.708;7.134;2023-11-19T13:45:47;10.85;;;3.53;;
71091;SDS011;58751;50.708;7.134;2023-11-19T13:48:13;11.53;;;3.93;;
71091;SDS011;58751;50.708;7.134;2023-11-19T13:50:38;15.67;;;4.00;;
71091;SDS011;58751;50.708;7.134;2023-11-19T13:53:04;9.83;;;4.00;;
71091;SDS011;58751;50.708;7.134;2023-11-19T13:55:29;18.63;;;4.00;;
71091;SDS011;58751;50.708;7.134;2023-11-19T13:57:54;8.47;;;3.40;;
71091;SDS011;58751;50.708;7.134;2023-11-19T14:00:21;10.40;;;4.23;;
71091;SDS011;58751;50.708;7.134;2023-11-19T14:02:46;9.97;;;3.60;;
71091;SDS011;58751;50.708;7.134;2023-11-19T14:05:12;14.43;;;4.53;;
71091;SDS011;58751;50.708;7.134;2023-11-19T14:07:38;10.43;;;3.67;;
71091;SDS011;58751;50.708;7.134;2023-11-19T14:10:04;13.30;;;4.83;;
71091;SDS011;58751;50.708;7.134;2023-11-19T14:12:31;10.13;;;3.73;;
71091;SDS011;58751;50.708;7.134;2023-11-19T14:14:56;11.17;;;3.30;;
71091;SDS011;58751;50.708;7.134;2023-11-19T14:17:23;9.77;;;3.47;;
71091;SDS011;58751;50.708;7.134;2023-11-19T14:19:49;10.83;;;4.47;;
71091;SDS011;58751;50.708;7.134;2023-11-19T14:22:14;11.30;;;4.13;;
71091;SDS011;58751;50.708;7.134;2023-11-19T14:24:40;12.67;;;4.60;;
71091;SDS011;58751;50.708;7.134;2023-11-19T14:27:05;9.63;;;4.00;;
71091;SDS011;58751;50.708;7.134;2023-11-19T14:29:30;6.77;;;2.50;;
71091;SDS011;58751;50.708;7.134;2023-11-19T14:31:56;11.43;;;3.40;;
71091;SDS011;58751;50.708;7.134;2023-11-19T14:34:22;11.87;;;3.73;;
71091;SDS011;58751;50.708;7.134;2023-11-19T14:36:48;13.13;;;3.30;;
71091;SDS011;58751;50.708;7.134;2023-11-19T14:39:13;8.43;;;3.40;;
71091;SDS011;58751;50.708;7.134;2023-11-19T14:41:39;10.40;;;2.57;;
71091;SDS011;58751;50.708;7.134;2023-11-19T14:44:04;9.37;;;2.33;;